createdAt,value
2023-01-04T00:01:55.584Z,14.90
2023-01-04T00:04:22.301Z,14.83
2023-01-04T00:06:49.258Z,15.27
2023-01-04T00:09:18.733Z,14.77
2023-01-04T00:11:45.490Z,12.47
2023-01-04T00:14:12.834Z,13.50
2023-01-04T00:16:39.659Z,13.30
2023-01-04T00:19:06.588Z,13.30
2023-01-04T00:21:33.361Z,12.07
2023-01-04T00:24:01.480Z,12.47
2023-01-04T00:26:30.956Z,12.80
2023-01-04T00:29:04.289Z,12.67
2023-01-04T00:31:31.182Z,10.57
2023-01-04T00:34:00.456Z,8.97
2023-01-04T00:36:28.329Z,8.13
2023-01-04T00:39:09.084Z,8.27
2023-01-04T00:42:01.549Z,8.10
2023-01-04T00:44:29.944Z,7.33
2023-01-04T00:46:56.764Z,7.70
2023-01-04T00:49:23.970Z,8.53
2023-01-04T00:51:50.945Z,8.03
2023-01-04T00:54:18.179Z,8.10
2023-01-04T00:56:45.440Z,9.40
2023-01-04T00:59:13.728Z,8.50
2023-01-04T01:01:41.639Z,8.77
2023-01-04T01:04:14.363Z,9.57
2023-01-04T01:06:41.550Z,9.37
2023-01-04T01:09:08.955Z,9.57
2023-01-04T01:11:39.652Z,9.80
2023-01-04T01:14:07.647Z,10.83
2023-01-04T01:19:21.495Z,10.67
2023-01-04T01:21:48.305Z,10.93
2023-01-04T01:24:17.551Z,10.60
2023-01-04T01:26:44.268Z,11.17
2023-01-04T01:29:11.086Z,11.53
2023-01-04T01:31:38.010Z,12.00
2023-01-04T01:34:04.967Z,11.80
2023-01-04T01:36:31.707Z,13.30
2023-01-04T01:38:58.725Z,13.03
2023-01-04T01:41:31.113Z,13.43
2023-01-04T01:44:01.835Z,13.43
2023-01-04T01:46:40.321Z,13.07
2023-01-04T01:49:30.923Z,14.13
2023-01-04T01:52:01.801Z,13.97
2023-01-04T01:54:52.060Z,14.23
2023-01-04T01:57:22.522Z,14.27
2023-01-04T01:59:52.745Z,14.97
2023-01-04T02:02:25.537Z,13.80
2023-01-04T02:04:52.942Z,14.33
2023-01-04T02:07:24.017Z,14.57
2023-01-04T02:09:51.519Z,14.93
2023-01-04T02:12:18.435Z,13.60
2023-01-04T02:14:48.573Z,13.40
2023-01-04T02:17:44.963Z,12.53
2023-01-04T02:20:27.761Z,12.53
2023-01-04T02:23:03.208Z,12.23
2023-01-04T02:25:51.559Z,11.23
2023-01-04T02:28:39.678Z,10.87
2023-01-04T02:31:25.139Z,12.53
2023-01-04T02:34:05.503Z,10.97
2023-01-04T02:36:55.298Z,13.47
2023-01-04T02:39:55.129Z,12.90
2023-01-04T02:42:53.115Z,11.03
2023-01-04T02:45:22.833Z,10.77
2023-01-04T02:48:07.964Z,11.93
2023-01-04T02:50:50.360Z,11.40
2023-01-04T02:53:24.587Z,13.17
2023-01-04T02:56:09.960Z,12.37
2023-01-04T02:59:15.155Z,13.90
2023-01-04T03:02:21.302Z,16.90
2023-01-04T03:06:02.365Z,18.53
2023-01-04T03:08:55.117Z,20.47
2023-01-04T03:11:41.393Z,21.23
2023-01-04T03:14:31.609Z,23.67
2023-01-04T03:17:10.349Z,24.07
2023-01-04T03:19:56.746Z,26.10
2023-01-04T03:23:11.007Z,25.17
2023-01-04T03:26:27.798Z,24.63
2023-01-04T03:29:15.881Z,24.43
2023-01-04T03:32:06.372Z,24.77
2023-01-04T03:34:51.898Z,22.50
2023-01-04T03:37:39.418Z,23.03
2023-01-04T03:40:33.957Z,22.10
2023-01-04T03:43:21.792Z,23.13
2023-01-04T03:46:12.420Z,22.83
2023-01-04T03:48:45.997Z,24.37
2023-01-04T03:51:22.944Z,26.13
2023-01-04T03:53:54.407Z,26.43
2023-01-04T03:56:24.384Z,26.40
2023-01-04T03:58:52.396Z,26.93
2023-01-04T04:01:20.929Z,28.53
2023-01-04T04:04:06.337Z,28.33
2023-01-04T04:06:51.581Z,29.23
2023-01-04T04:09:18.439Z,26.93
2023-01-04T04:11:45.177Z,26.80
2023-01-04T04:14:11.905Z,28.60
2023-01-04T04:16:38.832Z,28.30
2023-01-04T04:19:08.904Z,28.03
2023-01-04T04:21:36.177Z,28.57
2023-01-04T04:24:03.475Z,28.33
2023-01-04T04:26:30.183Z,28.50
2023-01-04T04:28:56.981Z,29.53
2023-01-04T04:31:23.838Z,27.60
2023-01-04T04:33:50.563Z,30.70
2023-01-04T04:36:17.263Z,28.43
2023-01-04T04:38:43.925Z,28.23
2023-01-04T04:41:31.658Z,29.00
2023-01-04T04:43:58.749Z,28.30
2023-01-04T04:46:25.762Z,29.03
2023-01-04T04:48:52.604Z,27.63
2023-01-04T04:51:19.993Z,27.10
2023-01-04T04:53:46.700Z,27.67
2023-01-04T04:56:13.404Z,26.73
2023-01-04T04:58:40.490Z,26.73
2023-01-04T05:01:07.996Z,27.07
2023-01-04T05:03:35.448Z,29.50
2023-01-04T05:06:02.831Z,27.97
2023-01-04T05:08:29.666Z,26.50
2023-01-04T05:10:56.383Z,27.00
2023-01-04T05:13:23.195Z,28.03
2023-01-04T05:15:52.579Z,27.03
2023-01-04T05:18:20.982Z,25.10
2023-01-04T05:20:48.392Z,25.00
2023-01-04T05:23:16.789Z,24.70
2023-01-04T05:25:43.861Z,25.53
2023-01-04T05:28:10.917Z,25.77
2023-01-04T05:30:53.876Z,25.43
2023-01-04T05:33:23.541Z,24.77
2023-01-04T05:35:51.567Z,25.17
2023-01-04T05:38:19.090Z,25.23
2023-01-04T05:40:46.462Z,24.30
2023-01-04T05:43:14.167Z,24.27
2023-01-04T05:45:44.321Z,24.97
2023-01-04T05:48:11.174Z,25.67
2023-01-04T05:50:38.100Z,24.27
2023-01-04T05:53:06.433Z,24.90
2023-01-04T05:55:34.124Z,25.57
2023-01-04T05:58:01.137Z,24.87
2023-01-04T06:00:27.908Z,25.37
2023-01-04T06:02:55.563Z,23.93
2023-01-04T06:05:23.029Z,23.63
2023-01-04T06:07:50.093Z,22.40
2023-01-04T06:10:16.922Z,22.53
2023-01-04T06:12:43.750Z,22.90
2023-01-04T06:15:11.754Z,22.60
2023-01-04T06:17:39.309Z,22.07
2023-01-04T06:20:09.515Z,21.70
2023-01-04T06:22:37.074Z,22.10
2023-01-04T06:25:04.618Z,23.13
2023-01-04T06:27:31.361Z,21.60
2023-01-04T06:29:58.057Z,23.00
2023-01-04T06:32:24.742Z,20.67
2023-01-04T06:34:51.432Z,19.07
2023-01-04T06:37:18.274Z,19.97
2023-01-04T06:39:44.978Z,20.33
2023-01-04T06:42:31.674Z,18.13
2023-01-04T06:44:58.420Z,18.20
2023-01-04T06:47:25.161Z,16.37
2023-01-04T06:49:51.977Z,17.30
2023-01-04T06:52:18.756Z,15.93
2023-01-04T06:54:45.481Z,14.33
2023-01-04T06:57:12.836Z,15.13
2023-01-04T06:59:39.708Z,14.90
2023-01-04T07:02:07.012Z,13.97
2023-01-04T07:04:33.848Z,13.37
2023-01-04T07:07:00.565Z,12.57
2023-01-04T07:09:27.257Z,13.00
2023-01-04T07:11:54.052Z,12.80
2023-01-04T07:14:20.711Z,12.73
2023-01-04T07:16:47.440Z,12.17
2023-01-04T07:19:14.258Z,12.03
2023-01-04T07:21:41.257Z,11.37
2023-01-04T07:24:08.010Z,11.27
2023-01-04T07:26:35.086Z,11.30
2023-01-04T07:29:17.460Z,12.60
2023-01-04T07:31:47.200Z,11.03
2023-01-04T07:34:15.574Z,11.30
2023-01-04T07:36:42.325Z,11.37
2023-01-04T07:39:12.454Z,11.13
2023-01-04T07:41:40.080Z,10.93
2023-01-04T07:44:07.981Z,10.53
2023-01-04T07:46:36.836Z,11.03
2023-01-04T07:49:04.416Z,10.63
2023-01-04T07:51:32.280Z,10.10
2023-01-04T07:53:59.444Z,10.17
2023-01-04T07:56:26.279Z,9.87
2023-01-04T07:58:57.077Z,9.97
2023-01-04T08:01:25.350Z,9.03
2023-01-04T08:03:53.288Z,9.67
2023-01-04T08:06:21.684Z,9.63
2023-01-04T08:08:49.115Z,9.33
2023-01-04T08:11:18.175Z,9.40
2023-01-04T08:13:45.161Z,8.57
2023-01-04T08:16:23.858Z,8.77
2023-01-04T08:18:58.467Z,8.40
2023-01-04T08:21:26.459Z,8.60
2023-01-04T08:23:57.177Z,8.10
2023-01-04T08:26:23.884Z,7.80
2023-01-04T08:28:51.429Z,8.47
2023-01-04T08:31:23.963Z,8.00
2023-01-04T08:33:51.597Z,8.07
2023-01-04T08:36:27.425Z,7.27
2023-01-04T08:39:03.059Z,7.50
2023-01-04T08:41:56.540Z,6.80
2023-01-04T08:44:19.235Z,6.37
2023-01-04T08:46:46.240Z,7.70
2023-01-04T08:49:13.620Z,12.57
2023-01-04T08:51:40.671Z,14.23
2023-01-04T08:54:07.678Z,8.33
2023-01-04T08:56:34.419Z,5.90
2023-01-04T08:59:01.455Z,6.30
2023-01-04T09:01:28.283Z,5.83
2023-01-04T09:03:56.860Z,5.90
2023-01-04T09:06:23.627Z,6.10
2023-01-04T09:08:50.618Z,5.53
2023-01-04T09:11:19.794Z,4.80
2023-01-04T09:13:47.553Z,4.73
2023-01-04T09:16:16.983Z,4.43
2023-01-04T09:18:44.458Z,4.10
2023-01-04T09:21:14.068Z,3.93
2023-01-04T09:23:41.888Z,3.30
2023-01-04T09:26:11.372Z,3.63
2023-01-04T09:28:38.582Z,4.07
2023-01-04T09:31:12.436Z,4.00
2023-01-04T09:34:12.022Z,10.10
2023-01-04T09:36:26.029Z,10.47
2023-01-04T09:38:53.063Z,7.73
2023-01-04T09:41:31.099Z,3.70
2023-01-04T09:44:18.175Z,3.90
2023-01-04T09:47:08.213Z,4.23
2023-01-04T09:50:00.310Z,2.30
2023-01-04T09:52:42.326Z,2.60
2023-01-04T09:55:38.672Z,2.60
2023-01-04T09:58:25.538Z,2.07
2023-01-04T10:01:07.277Z,1.90
2023-01-04T10:03:35.736Z,1.80
2023-01-04T10:06:03.313Z,2.30
2023-01-04T10:08:33.068Z,1.90
2023-01-04T10:11:22.457Z,1.90
2023-01-04T10:14:03.556Z,1.70
2023-01-04T10:17:11.405Z,1.43
2023-01-04T10:22:45.177Z,1.63
2023-01-04T10:25:15.078Z,1.13
2023-01-04T10:28:15.870Z,1.23
2023-01-04T10:31:40.370Z,1.77
2023-01-04T10:33:58.442Z,1.40
2023-01-04T10:36:31.409Z,1.60
2023-01-04T10:39:10.858Z,1.70
2023-01-04T10:41:43.500Z,1.40
2023-01-04T10:44:33.260Z,1.43
2023-01-04T10:47:21.974Z,1.37
2023-01-04T10:49:53.746Z,1.50
2023-01-04T10:52:25.620Z,1.30
2023-01-04T10:55:09.079Z,1.67
2023-01-04T10:58:01.989Z,1.57
2023-01-04T11:00:44.175Z,1.67
2023-01-04T11:03:28.148Z,1.60
2023-01-04T11:06:05.387Z,1.33
2023-01-04T11:08:50.311Z,1.10
2023-01-04T11:11:25.019Z,0.97
2023-01-04T11:13:51.792Z,0.83
2023-01-04T11:16:18.840Z,0.70
2023-01-04T11:18:49.056Z,0.50
2023-01-04T11:21:19.867Z,0.80
2023-01-04T11:23:46.543Z,0.60
2023-01-04T11:26:21.626Z,0.90
2023-01-04T11:29:04.357Z,0.80
2023-01-04T11:31:54.558Z,0.70
2023-01-04T11:34:52.510Z,0.60
2023-01-04T11:37:33.271Z,0.80
2023-01-04T11:40:16.368Z,0.90
2023-01-04T11:42:52.071Z,0.93
2023-01-04T11:45:25.357Z,0.80
2023-01-04T11:47:57.879Z,0.83
2023-01-04T11:50:34.996Z,0.97
2023-01-04T11:53:02.085Z,1.00
2023-01-04T11:55:31.129Z,1.00
2023-01-04T11:58:07.594Z,1.00
2023-01-04T12:00:34.894Z,1.27
2023-01-04T12:03:34.474Z,0.97
2023-01-04T12:06:01.440Z,0.90
2023-01-04T12:08:36.475Z,1.00
2023-01-04T12:11:05.405Z,0.90
2023-01-04T12:13:33.734Z,0.83
2023-01-04T12:16:18.847Z,1.80
2023-01-04T12:18:46.575Z,2.50
2023-01-04T12:21:24.532Z,1.30
2023-01-04T12:23:53.315Z,1.13
2023-01-04T12:26:20.784Z,1.30
2023-01-04T12:29:09.192Z,1.10
2023-01-04T12:31:35.880Z,1.80
2023-01-04T12:34:22.855Z,1.60
2023-01-04T12:37:05.826Z,1.70
2023-01-04T12:39:47.491Z,0.70
2023-01-04T12:42:17.455Z,0.97
2023-01-04T12:44:46.889Z,1.10
2023-01-04T12:47:47.597Z,0.60
2023-01-04T12:50:31.195Z,0.70
2023-01-04T12:53:29.999Z,0.57
2023-01-04T12:55:54.309Z,0.70
2023-01-04T12:58:58.190Z,0.60
2023-01-04T13:01:26.981Z,1.30
2023-01-04T13:04:27.870Z,0.80
2023-01-04T13:06:55.906Z,0.70
2023-01-04T13:09:25.195Z,0.60
2023-01-04T13:12:14.298Z,0.93
2023-01-04T13:14:47.642Z,0.70
2023-01-04T13:17:21.463Z,0.90
2023-01-04T13:19:49.080Z,0.90
2023-01-04T13:22:28.311Z,0.80
2023-01-04T13:24:57.979Z,0.83
2023-01-04T13:27:26.337Z,0.80
2023-01-04T13:29:53.452Z,0.93
2023-01-04T13:32:29.150Z,1.23
2023-01-04T13:35:03.673Z,0.80
2023-01-04T13:37:38.038Z,0.80
2023-01-04T13:40:25.590Z,1.10
2023-01-04T13:43:13.478Z,1.07
2023-01-04T13:45:51.556Z,0.90
2023-01-04T13:48:21.956Z,1.10
2023-01-04T13:51:00.666Z,1.10
2023-01-04T13:53:29.501Z,1.27
2023-01-04T13:55:59.104Z,1.17
2023-01-04T13:58:28.269Z,1.10
2023-01-04T14:01:13.011Z,1.03
2023-01-04T14:03:46.360Z,1.17
2023-01-04T14:06:18.536Z,1.47
2023-01-04T14:09:13.821Z,1.13
2023-01-04T14:12:06.264Z,1.10
2023-01-04T14:14:39.911Z,1.20
2023-01-04T14:17:14.643Z,1.23
2023-01-04T14:19:43.217Z,1.30
2023-01-04T14:22:29.456Z,1.10
2023-01-04T14:25:09.032Z,1.27
2023-01-04T14:27:45.213Z,1.07
2023-01-04T14:30:18.030Z,1.17
2023-01-04T14:33:00.215Z,1.30
2023-01-04T14:35:28.539Z,1.10
2023-01-04T14:38:01.767Z,1.10
2023-01-04T14:40:33.806Z,1.30
2023-01-04T14:43:00.684Z,0.90
2023-01-04T14:45:27.350Z,1.20
2023-01-04T14:47:54.058Z,1.10
2023-01-04T14:50:20.723Z,1.07
2023-01-04T14:52:51.766Z,1.10
2023-01-04T14:55:18.822Z,1.10
2023-01-04T14:57:45.772Z,1.10
2023-01-04T15:00:18.867Z,1.03
2023-01-04T15:02:50.360Z,1.10
2023-01-04T15:05:20.351Z,1.40
2023-01-04T15:07:47.320Z,1.33
2023-01-04T15:10:28.714Z,1.20
2023-01-04T15:12:57.704Z,1.30
2023-01-04T15:15:24.477Z,1.07
2023-01-04T15:17:51.168Z,1.20
2023-01-04T15:20:17.910Z,1.40
2023-01-04T15:22:44.642Z,2.00
2023-01-04T15:25:11.799Z,1.80
2023-01-04T15:27:42.164Z,1.67
2023-01-04T15:30:11.363Z,1.70
2023-01-04T15:32:38.440Z,1.60
2023-01-04T15:35:05.811Z,1.60
2023-01-04T15:37:32.550Z,1.50
2023-01-04T15:40:02.736Z,1.37
2023-01-04T15:42:48.591Z,1.60
2023-01-04T15:45:15.409Z,1.87
2023-01-04T15:47:42.295Z,1.73
2023-01-04T15:50:09.255Z,1.70
2023-01-04T15:52:35.963Z,1.50
2023-01-04T15:55:02.831Z,1.57
2023-01-04T15:57:29.522Z,1.50
2023-01-04T15:59:56.228Z,1.50
2023-01-04T16:02:23.048Z,1.30
2023-01-04T16:04:50.484Z,1.60
2023-01-04T16:07:17.900Z,1.50
2023-01-04T16:09:44.644Z,1.03
2023-01-04T16:12:29.857Z,1.60
2023-01-04T16:14:56.543Z,2.10
2023-01-04T16:17:23.232Z,1.47
2023-01-04T16:19:49.948Z,1.50
2023-01-04T16:22:16.773Z,3.13
2023-01-04T16:27:35.350Z,2.33
2023-01-04T16:30:03.633Z,2.10
2023-01-04T16:32:30.482Z,3.37
2023-01-04T16:34:57.340Z,1.70
2023-01-04T16:37:28.011Z,1.90
2023-01-04T16:40:11.301Z,1.80
2023-01-04T16:42:40.593Z,1.73
2023-01-04T16:45:07.973Z,1.90
2023-01-04T16:47:43.860Z,3.30
2023-01-04T16:50:12.444Z,1.93
2023-01-04T16:52:40.460Z,1.50
2023-01-04T16:55:08.007Z,1.67
2023-01-04T16:57:34.710Z,1.90
2023-01-04T17:00:01.455Z,1.47
2023-01-04T17:02:28.199Z,1.43
2023-01-04T17:04:59.543Z,1.40
2023-01-04T17:07:32.945Z,1.30
2023-01-04T17:10:01.182Z,1.60
2023-01-04T17:15:41.874Z,1.53
2023-01-04T17:18:01.636Z,1.70
2023-01-04T17:20:28.317Z,1.93
2023-01-04T17:22:54.988Z,1.77
2023-01-04T17:25:21.686Z,1.83
2023-01-04T17:27:48.362Z,1.87
2023-01-04T17:30:15.131Z,1.60
2023-01-04T17:32:43.278Z,1.80
2023-01-04T17:35:09.965Z,1.50
2023-01-04T17:37:36.630Z,1.70
2023-01-04T17:40:04.016Z,1.70
2023-01-04T17:42:33.024Z,2.00
2023-01-04T17:45:00.017Z,2.10
2023-01-04T17:47:26.846Z,1.90
2023-01-04T17:49:53.625Z,1.40
2023-01-04T17:52:25.900Z,1.70
2023-01-04T17:54:57.246Z,1.97
2023-01-04T17:57:23.919Z,1.50
2023-01-04T17:59:50.661Z,1.60
2023-01-04T18:02:17.568Z,1.50
2023-01-04T18:04:44.576Z,1.43
2023-01-04T18:09:38.974Z,1.50
2023-01-04T18:12:05.845Z,1.60
2023-01-04T18:14:32.569Z,1.97
2023-01-04T18:16:59.488Z,2.13
2023-01-04T18:19:29.338Z,1.90
2023-01-04T18:21:56.683Z,1.20
2023-01-04T18:24:39.621Z,1.40
2023-01-04T18:27:23.109Z,1.67
2023-01-04T18:29:51.679Z,1.43
2023-01-04T18:32:18.627Z,1.50
2023-01-04T18:34:45.368Z,1.50
2023-01-04T18:37:12.077Z,1.43
2023-01-04T18:39:38.798Z,1.37
2023-01-04T18:42:05.507Z,1.40
2023-01-04T18:44:33.851Z,1.40
2023-01-04T18:47:03.539Z,1.20
2023-01-04T18:49:30.505Z,1.33
2023-01-04T18:51:57.532Z,1.33
2023-01-04T18:54:24.425Z,1.30
2023-01-04T18:56:56.974Z,1.40
2023-01-04T18:59:27.765Z,1.10
2023-01-04T19:01:58.057Z,1.23
2023-01-04T19:04:24.889Z,1.17
2023-01-04T19:06:54.229Z,1.47
2023-01-04T19:09:21.439Z,1.30
2023-01-04T19:11:48.450Z,1.30
2023-01-04T19:14:15.445Z,1.20
2023-01-04T19:16:42.808Z,1.60
2023-01-04T19:19:10.281Z,1.43
2023-01-04T19:21:37.753Z,1.17
2023-01-04T19:24:04.676Z,1.00
2023-01-04T19:26:31.456Z,1.20
2023-01-04T19:28:58.110Z,1.30
2023-01-04T19:31:24.876Z,1.20
2023-01-04T19:33:51.610Z,1.27
2023-01-04T19:36:19.741Z,1.33
2023-01-04T19:38:46.652Z,1.10
2023-01-04T19:41:25.260Z,1.10
2023-01-04T19:43:57.796Z,1.00
2023-01-04T19:46:24.616Z,1.13
2023-01-04T19:48:52.582Z,1.10
2023-01-04T19:51:19.342Z,1.00
2023-01-04T19:53:46.082Z,1.10
2023-01-04T19:56:15.117Z,1.20
2023-01-04T19:58:41.964Z,1.30
2023-01-04T20:01:14.026Z,1.20
2023-01-04T20:03:42.228Z,1.20
2023-01-04T20:06:11.721Z,1.13
2023-01-04T20:08:39.442Z,0.93
2023-01-04T20:11:06.949Z,1.10
2023-01-04T20:13:33.946Z,1.17
2023-01-04T20:16:01.448Z,1.40
2023-01-04T20:18:28.310Z,1.10
2023-01-04T20:20:55.087Z,1.40
2023-01-04T20:23:22.080Z,1.30
2023-01-04T20:25:51.378Z,0.93
2023-01-04T20:28:20.380Z,1.20
2023-01-04T20:30:47.625Z,0.90
2023-01-04T20:33:14.825Z,1.10
2023-01-04T20:35:43.692Z,0.97
2023-01-04T20:38:11.941Z,1.17
2023-01-04T20:40:39.462Z,0.87
2023-01-04T20:43:25.010Z,1.10
2023-01-04T20:45:51.938Z,0.90
2023-01-04T20:48:18.941Z,0.90
2023-01-04T20:50:45.783Z,1.00
2023-01-04T20:53:13.563Z,1.20
2023-01-04T20:55:42.029Z,1.30
2023-01-04T20:58:10.670Z,0.90
2023-01-04T21:00:38.274Z,0.90
2023-01-04T21:03:06.972Z,1.03
2023-01-04T21:05:44.732Z,0.80
2023-01-04T21:08:12.829Z,0.90
2023-01-04T21:10:43.803Z,1.00
2023-01-04T21:13:11.881Z,1.27
2023-01-04T21:15:39.405Z,0.90
2023-01-04T21:18:07.400Z,1.13
2023-01-04T21:20:34.325Z,1.00
2023-01-04T21:23:01.040Z,1.43
2023-01-04T21:25:27.717Z,1.20
2023-01-04T21:27:54.422Z,0.97
2023-01-04T21:30:21.555Z,0.80
2023-01-04T21:32:48.442Z,0.90
2023-01-04T21:35:15.255Z,1.30
2023-01-04T21:37:42.915Z,0.97
2023-01-04T21:40:10.420Z,1.27
2023-01-04T21:42:37.087Z,1.10
2023-01-04T21:45:04.463Z,1.10
2023-01-04T21:47:31.823Z,0.93
2023-01-04T21:49:58.691Z,1.00
2023-01-04T21:52:26.160Z,1.10
2023-01-04T21:54:53.073Z,0.87
2023-01-04T21:57:20.098Z,0.90
2023-01-04T21:59:47.167Z,0.93
2023-01-04T22:02:19.331Z,0.80
2023-01-04T22:04:46.704Z,0.87
2023-01-04T22:07:14.355Z,0.83
2023-01-04T22:09:41.014Z,0.80
2023-01-04T22:12:08.267Z,0.53
2023-01-04T22:14:35.366Z,0.77
2023-01-04T22:17:02.643Z,0.70
2023-01-04T22:19:29.440Z,0.70
2023-01-04T22:21:56.180Z,0.70
2023-01-04T22:24:23.235Z,0.90
2023-01-04T22:26:50.702Z,0.50
2023-01-04T22:29:18.622Z,0.67
2023-01-04T22:31:45.481Z,0.50
2023-01-04T22:34:12.246Z,0.63
2023-01-04T22:36:38.967Z,0.60
2023-01-04T22:39:06.875Z,0.70
2023-01-04T22:41:33.896Z,0.57
2023-01-04T22:44:03.667Z,0.53
2023-01-04T22:46:32.404Z,0.60
2023-01-04T22:49:00.180Z,0.50
2023-01-04T22:51:28.340Z,0.77
2023-01-04T22:54:00.455Z,0.70
2023-01-04T22:56:27.870Z,0.60
2023-01-04T22:58:56.259Z,0.67
2023-01-04T23:01:29.104Z,0.73
2023-01-04T23:03:57.126Z,0.60
2023-01-04T23:06:25.750Z,0.77
2023-01-04T23:08:57.583Z,0.80
2023-01-04T23:11:25.226Z,0.70
2023-01-04T23:13:52.634Z,0.83
2023-01-04T23:16:19.948Z,0.97
2023-01-04T23:18:46.924Z,0.90
2023-01-04T23:21:14.731Z,0.80
2023-01-04T23:23:41.723Z,0.90
2023-01-04T23:26:12.934Z,0.80
2023-01-04T23:28:39.732Z,0.77
2023-01-04T23:31:08.932Z,0.70
2023-01-04T23:33:36.765Z,0.93
2023-01-04T23:36:15.877Z,1.40
2023-01-04T23:38:44.015Z,1.33
2023-01-04T23:41:11.585Z,1.20
2023-01-04T23:43:39.072Z,1.17
2023-01-04T23:46:14.272Z,1.20
2023-01-04T23:48:41.421Z,1.50
2023-01-04T23:51:08.254Z,1.30
2023-01-04T23:53:34.995Z,1.20
2023-01-04T23:56:03.635Z,1.27
2023-01-04T23:58:31.306Z,1.40
